Time;durP1;ratioP1;P1;durP2;ratioP2;P2;SDS_P1;SDS_P2;PMS_P1;PMS_P2;Temp;Humidity;BMP_temperature;BMP_pressure;BME280_temperature;BME280_humidity;BME280_pressure;Samples;Min_cycle;Max_cycle;Signal;HPM_P1;HPM_P2
2022/07/30 00:01:19;;;;;;;12.48;8.15;;;;;;;18.02;83.60;68777.09;5007526;28;20030;-77
2022/07/30 00:03:44;;;;;;;10.40;8.25;;;;;;;;;;5008076;28;20060;-77
2022/07/30 00:06:09;;;;;;;10.75;7.78;;;;;;;17.83;85.19;68755.41;5027758;28;20148;-79
2022/07/30 00:08:35;;;;;;;10.75;8.30;;;;;;;17.68;86.07;68739.41;5003793;28;20034;-76
2022/07/30 00:11:00;;;;;;;12.73;8.48;;;;;;;17.59;86.22;68723.75;5007388;28;20553;-78
2022/07/30 00:13:25;;;;;;;14.25;8.95;;;;;;;;;;5006662;28;20033;-78
2022/07/30 00:15:51;;;;;;;12.50;8.93;;;;;;;17.60;86.22;68732.97;5006855;28;20100;-77
2022/07/30 00:18:16;;;;;;;14.70;9.18;;;;;;;17.56;87.21;68725.72;5007758;28;20042;-77
2022/07/30 00:20:41;;;;;;;11.98;9.45;;;;;;;17.43;86.82;68710.88;5006087;28;20517;-77
2022/07/30 00:23:07;;;;;;;10.73;9.13;;;;;;;;;;5007069;28;20050;-77
2022/07/30 00:25:32;;;;;;;15.05;9.95;;;;;;;;;;5006714;28;20485;-79
2022/07/30 00:27:57;;;;;;;14.30;9.82;;;;;;;;;;5007900;28;20103;-77
2022/07/30 00:30:23;;;;;;;14.38;9.88;;;;;;;17.23;88.75;68681.13;5005272;28;20489;-78
2022/07/30 00:32:49;;;;;;;12.35;9.43;;;;;;;17.18;89.05;68678.13;5007069;28;20050;-79
2022/07/30 00:35:14;;;;;;;10.65;9.25;;;;;;;;;;5006741;28;20112;-78
2022/07/30 00:37:40;;;;;;;14.00;9.57;;;;;;;16.97;89.86;68654.16;5007346;28;20053;-76
2022/07/30 00:40:07;;;;;;;12.30;9.93;;;;;;;16.88;91.15;68650.41;5006920;28;20413;-77
2022/07/30 00:42:36;;;;;;;13.20;10.40;;;;;;;;;;5006327;28;20049;-76
2022/07/30 00:45:02;;;;;;;16.50;10.60;;;;;;;;;;5007113;28;20066;-76
2022/07/30 00:47:27;;;;;;;12.98;10.43;;;;;;;16.66;92.02;68620.50;5005722;28;20068;-78
2022/07/30 00:49:53;;;;;;;14.32;10.95;;;;;;;16.59;93.44;68611.94;5007420;28;20084;-80
2022/07/30 00:52:18;;;;;;;12.05;10.40;;;;;;;16.52;94.28;68601.28;5004799;28;20494;-76
2022/07/30 00:54:43;;;;;;;14.45;11.80;;;;;;;16.52;94.24;68609.34;5003585;28;20082;-78
2022/07/30 00:57:08;;;;;;;13.95;10.68;;;;;;;;;;4989016;28;20067;-76
2022/07/30 00:59:34;;;;;;;14.88;10.38;;;;;;;;;;5005885;28;20680;-77
2022/07/30 01:02:00;;;;;;;14.63;11.50;;;;;;;;;;4988569;28;20037;-77
2022/07/30 01:04:25;;;;;;;14.65;11.20;;;;;;;;;;5007036;28;20038;-77
2022/07/30 01:06:50;;;;;;;12.90;11.10;;;;;;;;;;5007296;28;20049;-76
2022/07/30 01:09:16;;;;;;;15.07;10.97;;;;;;;;;;5006385;28;20396;-77
2022/07/30 01:11:42;;;;;;;14.25;11.68;;;;;;;16.26;94.41;68580.84;5005684;28;20379;-76
2022/07/30 01:14:08;;;;;;;16.30;11.93;;;;;;;16.19;95.44;68572.84;5005762;28;20050;-76
2022/07/30 01:16:36;;;;;;;14.85;12.57;;;;;;;16.22;95.76;68576.84;5004891;28;20593;-77
2022/07/30 01:22:07;;;;;;;16.65;12.07;;;;;;;16.15;95.49;68562.94;4987969;28;20560;-77
2022/07/30 01:24:35;;;;;;;18.00;12.73;;;;;;;;;;5003044;28;20390;-79
2022/07/30 01:27:01;;;;;;;14.25;11.43;;;;;;;15.96;98.23;68541.84;5006057;28;20076;-77
2022/07/30 01:29:27;;;;;;;16.92;12.82;;;;;;;;;;5005536;28;20046;-77
2022/07/30 01:31:58;;;;;;;21.35;13.75;;;;;;;16.11;97.82;68564.31;5006912;28;20421;-79
2022/07/30 01:34:27;;;;;;;16.30;13.82;;;;;;;16.15;98.02;68568.88;4999422;28;20121;-80
2022/07/30 01:36:55;;;;;;;19.00;13.77;;;;;;;16.15;98.01;68568.88;5003363;28;20058;-80
2022/07/30 01:39:21;;;;;;;19.83;15.80;;;;;;;;;;5005544;28;20441;-76
2022/07/30 01:41:48;;;;;;;18.30;14.77;;;;;;;16.20;97.82;68574.56;5005978;28;20045;-76
2022/07/30 01:44:16;;;;;;;21.40;16.90;;;;;;;16.15;98.41;68562.94;5006136;28;20038;-77
2022/07/30 01:46:41;;;;;;;22.65;15.50;;;;;;;16.15;98.41;68563.50;5003958;28;20486;-76
2022/07/30 01:49:08;;;;;;;21.98;17.17;;;;;;;16.10;98.89;68562.59;5004938;28;20045;-77
2022/07/30 01:51:36;;;;;;;23.08;18.02;;;;;;;15.94;100.00;68548.19;5003837;28;20034;-77
2022/07/30 01:54:01;;;;;;;23.05;18.45;;;;;;;15.97;100.00;68548.34;5004647;28;20042;-77
2022/07/30 01:56:29;;;;;;;24.48;19.88;;;;;;;15.98;100.00;68552.16;5005149;28;20429;-78
2022/07/30 01:58:57;;;;;;;23.63;20.58;;;;;;;15.93;100.00;68538.41;5006834;28;20501;-76
2022/07/30 02:01:23;;;;;;;21.23;18.95;;;;;;;15.92;100.00;68542.66;5004488;28;20035;-78
2022/07/30 02:03:48;;;;;;;27.75;19.48;;;;;;;;;;5007361;28;20041;-78
2022/07/30 02:06:20;;;;;;;25.20;20.02;;;;;;;15.87;100.00;68537.50;5026323;28;20099;-76
2022/07/30 02:08:55;;;;;;;30.48;21.35;;;;;;;15.79;100.00;68523.03;4997672;28;20416;-77
2022/07/30 02:14:11;;;;;;;23.67;20.52;;;;;;;15.80;100.00;68524.19;4983220;28;20570;-77
2022/07/30 02:16:41;;;;;;;28.33;22.05;;;;;;;15.66;100.00;68513.56;5001873;28;20030;-78
2022/07/30 02:19:15;;;;;;;25.70;21.00;;;;;;;15.64;100.00;68511.84;5000694;28;20037;-77
2022/07/30 02:21:55;;;;;;;27.20;22.65;;;;;;;15.63;100.00;68510.16;5005955;28;20038;-77
2022/07/30 02:24:22;;;;;;;29.48;23.02;;;;;;;;;;5001379;28;20034;-77
2022/07/30 02:26:53;;;;;;;26.02;21.73;;;;;;;15.63;100.00;68510.16;5006989;28;20073;-78
2022/07/30 02:29:21;;;;;;;26.27;22.70;;;;;;;15.56;100.00;68503.31;5001597;28;20036;-77
2022/07/30 02:31:47;;;;;;;28.57;23.73;;;;;;;;;;4999273;28;20038;-76
2022/07/30 02:34:14;;;;;;;30.17;22.67;;;;;;;;;;5004331;28;21282;-76
2022/07/30 02:36:41;;;;;;;30.90;22.15;;;;;;;15.35;100.00;68474.03;5007179;28;20121;-77
2022/07/30 02:39:08;;;;;;;26.83;23.00;;;;;;;15.44;100.00;68491.75;5006459;28;20038;-77
2022/07/30 02:41:35;;;;;;;28.88;23.02;;;;;;;;;;5006229;28;20520;-77
2022/07/30 02:44:01;;;;;;;27.48;22.23;;;;;;;15.44;100.00;68489.06;5006151;28;21030;-78
2022/07/30 02:46:27;;;;;;;29.95;25.02;;;;;;;;;;5006396;28;20042;-77
2022/07/30 02:48:54;;;;;;;32.83;24.83;;;;;;;15.45;100.00;68482.16;5006595;28;20077;-77
2022/07/30 02:51:21;;;;;;;31.30;25.10;;;;;;;15.48;100.00;68493.63;5005457;28;20042;-77
2022/07/30 02:53:48;;;;;;;33.03;26.05;;;;;;;15.47;100.00;68493.06;5003460;28;20084;-78
2022/07/30 02:56:16;;;;;;;36.35;26.98;;;;;;;15.45;100.00;68490.78;5006580;28;20073;-76
2022/07/30 02:58:45;;;;;;;40.28;31.40;;;;;;;15.42;100.00;68487.38;5005058;28;20038;-77
2022/07/30 03:01:12;;;;;;;;;;;;;;;15.43;100.00;68483.13;5008884;28;20095;-77
2022/07/30 03:03:39;;;;;;;45.53;32.65;;;;;;;;;;5008921;28;19968;-77
2022/07/30 03:06:06;;;;;;;51.85;36.00;;;;;;;15.28;100.00;68471.41;5026838;28;20065;-78
2022/07/30 03:08:32;;;;;;;53.22;36.13;;;;;;;;;;5004973;28;20045;-77
2022/07/30 03:10:58;;;;;;;56.85;41.65;;;;;;;15.27;100.00;68470.28;5009874;28;20133;-76
2022/07/30 03:13:23;;;;;;;71.63;44.72;;;;;;;;;;5009174;28;20046;-79
2022/07/30 03:15:51;;;;;;;64.82;43.10;;;;;;;15.31;100.00;68474.84;5008471;28;20120;-76
2022/07/30 03:18:19;;;;;;;73.45;46.50;;;;;;;15.27;100.00;68472.94;5009799;28;20052;-77
2022/07/30 03:20:47;;;;;;;72.70;47.70;;;;;;;15.18;100.00;68460.59;5008623;28;20068;-79
2022/07/30 03:23:16;;;;;;;71.32;47.35;;;;;;;15.20;100.00;68467.66;5008821;28;20046;-76
2022/07/30 03:25:49;;;;;;;90.15;52.17;;;;;;;15.19;100.00;68466.50;4991118;28;20748;-76
2022/07/30 03:28:16;;;;;;;84.97;46.85;;;;;;;15.09;100.00;68450.91;5009203;28;20041;-77
2022/07/30 03:30:42;;;;;;;79.03;47.25;;;;;;;15.05;100.00;68446.34;5008377;28;20042;-77
2022/07/30 03:33:11;;;;;;;82.78;49.92;;;;;;;15.07;100.00;68450.75;5010028;28;20048;-77
2022/07/30 03:35:37;;;;;;;106.80;49.88;;;;;;;14.99;100.00;68439.53;5010292;28;20050;-77
2022/07/30 03:38:03;;;;;;;117.88;52.92;;;;;;;;;;5011103;28;20545;-77
2022/07/30 03:40:29;;;;;;;95.20;53.38;;;;;;;15.03;100.00;68444.06;5008085;28;20050;-77
2022/07/30 03:42:55;;;;;;;98.35;48.88;;;;;;;14.98;100.00;68438.38;5010298;28;20062;-77
2022/07/30 03:45:20;;;;;;;142.70;63.15;;;;;;;15.02;100.00;68442.38;4991646;28;20033;-77
2022/07/30 03:47:46;;;;;;;92.65;55.40;;;;;;;15.16;100.00;68457.75;5009538;28;20125;-76
2022/07/30 03:50:14;;;;;;;101.75;53.50;;;;;;;15.08;100.00;68449.78;5009578;28;20037;-77
2022/07/30 03:52:40;;;;;;;90.40;50.28;;;;;;;15.10;100.00;68452.06;5009741;28;20084;-77
2022/07/30 03:55:08;;;;;;;110.97;57.42;;;;;;;15.10;100.00;68451.47;5009930;28;20104;-77
2022/07/30 03:57:35;;;;;;;95.57;52.67;;;;;;;15.15;100.00;68456.59;5008260;28;20029;-78
2022/07/30 04:00:00;;;;;;;113.60;57.70;;;;;;;;;;5009134;28;20042;-77
2022/07/30 04:02:26;;;;;;;109.55;53.83;;;;;;;15.22;100.00;68464.56;5004342;28;20501;-77
2022/07/30 04:04:51;;;;;;;93.70;52.15;;;;;;;;;;4992748;28;20433;-77
2022/07/30 04:07:17;;;;;;;96.07;55.58;;;;;;;15.27;100.00;68470.84;5008240;28;20041;-77
2022/07/30 04:09:42;;;;;;;102.97;57.80;;;;;;;15.23;100.00;68465.72;5008270;28;20064;-77
2022/07/30 04:12:08;;;;;;;169.45;62.38;;;;;;;15.19;100.00;68455.78;5008886;28;20069;-77
2022/07/30 04:14:41;;;;;;;110.72;59.67;;;;;;;15.22;100.00;68464.56;5007103;28;20052;-77
2022/07/30 04:17:21;;;;;;;110.22;57.97;;;;;;;15.27;100.00;68464.91;5007932;28;20033;-77
2022/07/30 04:19:55;;;;;;;107.57;54.58;;;;;;;;;;4986330;28;20117;-77
2022/07/30 04:22:22;;;;;;;115.07;57.08;;;;;;;;;;4985377;28;20112;-77
2022/07/30 04:24:48;;;;;;;133.05;60.95;;;;;;;15.26;100.00;68469.69;4988968;28;20045;-77
2022/07/30 04:27:15;;;;;;;104.20;56.15;;;;;;;15.35;100.00;68479.38;5003974;28;20038;-77
2022/07/30 04:29:41;;;;;;;128.05;64.13;;;;;;;;;;5007164;28;20493;-77
2022/07/30 04:32:08;;;;;;;90.60;52.88;;;;;;;15.37;100.00;68481.66;5008448;28;20061;-77
2022/07/30 04:34:34;;;;;;;98.53;57.05;;;;;;;15.39;100.00;68483.94;5005829;28;20128;-77
2022/07/30 04:36:59;;;;;;;100.45;56.83;;;;;;;15.37;100.00;68486.47;5008300;28;20133;-77
2022/07/30 04:39:25;;;;;;;92.00;50.88;;;;;;;;;;5005900;28;20045;-77
2022/07/30 04:41:51;;;;;;;79.10;46.70;;;;;;;15.46;100.00;68491.91;5006801;28;20050;-77
2022/07/30 04:44:19;;;;;;;83.40;49.58;;;;;;;15.46;100.00;68494.59;5006291;28;20146;-77
2022/07/30 04:46:45;;;;;;;82.93;49.47;;;;;;;;;;5006476;28;20052;-77
2022/07/30 04:49:12;;;;;;;75.85;47.95;;;;;;;15.53;100.00;68502.56;5007984;28;20034;-77
2022/07/30 04:51:39;;;;;;;74.68;43.00;;;;;;;15.61;100.00;68507.88;5010719;28;20498;-77
2022/07/30 04:54:07;;;;;;;76.78;47.03;;;;;;;15.65;100.00;68504.38;5007051;28;20068;-77
2022/07/30 04:56:34;;;;;;;80.40;46.55;;;;;;;15.60;100.00;68501.94;5006428;28;20044;-77
2022/07/30 04:59:01;;;;;;;73.88;43.08;;;;;;;15.61;100.00;68508.44;5006655;28;20044;-77
2022/07/30 05:01:28;;;;;;;76.13;41.90;;;;;;;;;;5005221;28;20038;-77
2022/07/30 05:03:54;;;;;;;72.68;41.17;;;;;;;;;;5009178;28;20111;-77
2022/07/30 05:06:20;;;;;;;73.32;39.67;;;;;;;15.61;100.00;68508.44;5005722;28;20042;-77
2022/07/30 05:08:46;;;;;;;75.57;44.90;;;;;;;15.69;100.00;68511.66;5006623;28;20120;-77
2022/07/30 05:11:13;;;;;;;68.95;41.10;;;;;;;15.77;100.00;68526.69;5005784;28;20076;-77
2022/07/30 05:13:42;;;;;;;65.70;36.65;;;;;;;;;;5006796;28;20117;-77
2022/07/30 05:16:07;;;;;;;;;;;;;;;15.79;100.00;68523.63;5006920;28;20132;-77
2022/07/30 05:18:33;;;;;;;62.63;39.03;;;;;;;15.74;100.00;68522.72;4986970;28;20036;-77
2022/07/30 05:20:58;;;;;;;68.18;39.80;;;;;;;;;;5003916;28;20053;-77
2022/07/30 05:23:23;;;;;;;66.15;37.38;;;;;;;15.87;100.00;68536.94;5006896;28;20045;-77
2022/07/30 05:25:49;;;;;;;65.65;39.33;;;;;;;15.94;100.00;68550.28;5005790;28;20045;-77
2022/07/30 05:28:14;;;;;;;76.57;39.33;;;;;;;15.98;100.00;68544.13;5008139;28;20092;-77
2022/07/30 05:30:39;;;;;;;66.32;36.42;;;;;;;15.95;100.00;68546.06;5005877;28;20493;-77
2022/07/30 05:33:05;;;;;;;63.95;34.83;;;;;;;;;;5008710;28;20046;-77
2022/07/30 05:35:30;;;;;;;66.57;40.77;;;;;;;;;;5006669;28;20050;-77
2022/07/30 05:37:55;;;;;;;66.57;37.75;;;;;;;16.07;100.00;68553.81;4988664;28;20351;-77
2022/07/30 05:40:21;;;;;;;60.00;37.63;;;;;;;16.13;100.00;68566.00;5007221;28;20425;-77
2022/07/30 05:42:46;;;;;;;60.70;35.25;;;;;;;;;;4989548;28;20154;-77
2022/07/30 05:45:11;;;;;;;58.40;37.17;;;;;;;;;;5006426;28;20547;-77
2022/07/30 05:47:37;;;;;;;57.83;34.78;;;;;;;16.14;100.00;68561.78;5006574;28;20061;-77
2022/07/30 05:50:02;;;;;;;59.78;39.17;;;;;;;16.21;100.00;68567.06;5001181;28;20400;-77
2022/07/30 05:52:28;;;;;;;52.13;36.97;;;;;;;16.20;100.00;68569.19;5004298;28;20176;-77
2022/07/30 05:54:53;;;;;;;53.50;37.33;;;;;;;16.21;100.00;68570.31;5006058;28;20050;-77
2022/07/30 05:57:18;;;;;;;48.05;34.35;;;;;;;16.20;100.00;68569.19;5007049;28;20145;-77
2022/07/30 05:59:45;;;;;;;48.72;34.63;;;;;;;16.28;100.00;68582.53;5002089;28;20140;-77
2022/07/30 06:02:11;;;;;;;48.38;32.47;;;;;;;16.29;100.00;68584.25;5006210;28;20042;-77
2022/07/30 06:04:36;;;;;;;44.35;30.52;;;;;;;16.31;100.00;68581.16;5006612;28;20041;-77
2022/07/30 06:07:01;;;;;;;43.22;29.95;;;;;;;;;;5007008;28;20396;-77
2022/07/30 06:09:27;;;;;;;45.10;28.98;;;;;;;;;;5005667;28;20072;-77
2022/07/30 06:11:52;;;;;;;42.17;31.55;;;;;;;16.42;100.00;68593.69;4989325;28;20062;-77
2022/07/30 06:14:18;;;;;;;42.08;28.05;;;;;;;16.47;100.00;68604.78;5005645;28;20057;-77
2022/07/30 06:16:43;;;;;;;37.67;28.58;;;;;;;;;;5005113;28;20106;-77
2022/07/30 06:19:09;;;;;;;33.93;26.33;;;;;;;16.52;100.00;68609.91;5003107;28;20037;-77
2022/07/30 06:21:34;;;;;;;37.15;27.27;;;;;;;16.54;100.00;68606.22;5006218;28;20281;-77
2022/07/30 06:23:59;;;;;;;39.20;26.70;;;;;;;16.50;100.00;68601.69;5005953;28;20042;-77
2022/07/30 06:26:25;;;;;;;33.63;25.02;;;;;;;16.57;100.00;68609.66;5004974;28;20451;-77
2022/07/30 06:28:50;;;;;;;34.25;25.85;;;;;;;16.64;100.00;68623.03;5006356;28;20072;-77
2022/07/30 06:31:15;;;;;;;31.08;23.67;;;;;;;;;;5006251;28;20057;-77
2022/07/30 06:33:41;;;;;;;28.60;23.35;;;;;;;16.69;100.00;68628.72;5006936;28;20678;-77
2022/07/30 06:36:07;;;;;;;26.35;18.50;;;;;;;16.74;100.00;68628.47;5009972;28;20038;-77
2022/07/30 06:38:32;;;;;;;28.30;21.42;;;;;;;16.75;100.00;68635.00;5009961;28;20048;-77
2022/07/30 06:40:58;;;;;;;26.27;21.65;;;;;;;16.75;100.00;68630.19;5012561;28;20041;-77
2022/07/30 06:43:23;;;;;;;24.92;21.80;;;;;;;;;;5009806;28;20100;-77
2022/07/30 06:45:48;;;;;;;29.85;21.63;;;;;;;16.66;100.00;68619.94;5009977;28;20042;-77
2022/07/30 06:48:14;;;;;;;27.70;22.38;;;;;;;16.75;100.00;68630.19;5007878;28;20249;-77
2022/07/30 06:50:42;;;;;;;28.52;20.60;;;;;;;16.79;100.00;68640.13;5007787;28;20515;-77
2022/07/30 06:53:07;;;;;;;28.80;21.23;;;;;;;16.84;100.00;68645.28;5006555;28;20614;-77
2022/07/30 06:55:33;;;;;;;26.40;20.92;;;;;;;16.89;100.00;68651.56;5007419;28;20038;-77
2022/07/30 06:57:58;;;;;;;22.33;19.85;;;;;;;16.96;100.00;68653.59;5008816;28;20046;-77
2022/07/30 07:00:24;;;;;;;22.77;19.65;;;;;;;17.01;100.00;68664.66;5009722;28;20057;-77
2022/07/30 07:02:49;;;;;;;22.27;19.77;;;;;;;17.08;100.00;68672.06;4992509;28;20096;-77
2022/07/30 07:05:14;;;;;;;23.13;17.15;;;;;;;;;;5009894;28;20069;-77
2022/07/30 07:07:40;;;;;;;22.60;18.08;;;;;;;17.15;100.00;68680.06;5010747;28;20057;-77
2022/07/30 07:10:06;;;;;;;20.73;17.15;;;;;;;17.18;100.00;68678.13;5008618;28;20100;-77
2022/07/30 07:12:31;;;;;;;25.05;17.08;;;;;;;17.19;100.00;68684.63;5009977;28;20042;-77
2022/07/30 07:14:57;;;;;;;25.73;18.85;;;;;;;17.18;100.00;68683.50;5007524;28;20052;-77
2022/07/30 07:17:22;;;;;;;22.25;19.50;;;;;;;17.23;100.00;68688.63;5009825;28;20033;-77
2022/07/30 07:19:47;;;;;;;24.23;18.67;;;;;;;;;;5002541;28;20137;-77
2022/07/30 07:22:12;;;;;;;19.73;17.55;;;;;;;;;;4991311;28;20041;-77
2022/07/30 07:24:38;;;;;;;19.73;16.75;;;;;;;17.39;100.00;68706.31;5010265;28;20033;-78
2022/07/30 07:27:03;;;;;;;21.25;17.38;;;;;;;17.48;100.00;68717.16;5011204;28;20045;-77
2022/07/30 07:29:28;;;;;;;22.20;15.07;;;;;;;17.52;100.00;68716.34;5009679;28;20504;-77
2022/07/30 07:31:54;;;;;;;22.48;15.55;;;;;;;;;;5012007;28;20037;-77
2022/07/30 07:34:19;;;;;;;19.45;14.98;;;;;;;;;;5009462;28;20054;-77
2022/07/30 07:36:44;;;;;;;20.37;14.90;;;;;;;17.71;100.00;68737.44;5005049;28;20666;-77
2022/07/30 07:39:10;;;;;;;23.60;16.98;;;;;;;17.81;100.00;68748.31;5004937;28;20821;-77
2022/07/30 07:41:38;;;;;;;19.70;15.38;;;;;;;;;;5008597;28;20042;-77
2022/07/30 07:44:03;;;;;;;20.48;15.30;;;;;;;;;;5010241;28;20088;-78
2022/07/30 07:46:29;;;;;;;19.40;16.42;;;;;;;;;;4989729;28;20058;-77
2022/07/30 07:48:54;;;;;;;18.20;14.43;;;;;;;;;;5010739;28;20033;-77
2022/07/30 07:51:19;;;;;;;19.57;15.37;;;;;;;;;;5009847;28;20127;-77
2022/07/30 07:53:45;;;;;;;17.70;13.52;;;;;;;18.13;100.00;68791.78;4987299;28;20316;-78
2022/07/30 07:56:10;;;;;;;18.63;13.30;;;;;;;18.26;99.67;68798.53;5005455;28;20069;-77
2022/07/30 07:58:36;;;;;;;15.02;11.00;;;;;;;18.32;96.88;68805.38;5004768;28;20034;-77
2022/07/30 08:01:01;;;;;;;14.02;11.05;;;;;;;;;;5007131;28;20081;-77
2022/07/30 08:03:26;;;;;;;12.45;10.77;;;;;;;;;;5007688;28;20061;-77
2022/07/30 08:05:52;;;;;;;14.98;11.35;;;;;;;18.79;95.63;68863.31;4993610;28;20516;-77
2022/07/30 08:08:17;;;;;;;14.07;9.88;;;;;;;18.98;93.42;68879.03;5009329;28;20073;-77
2022/07/30 08:10:43;;;;;;;12.00;9.45;;;;;;;18.80;91.93;68858.50;5010182;28;20052;-77
2022/07/30 08:13:08;;;;;;;12.68;7.50;;;;;;;18.86;90.71;68865.91;5009711;28;20042;-77
2022/07/30 08:15:33;;;;;;;13.02;9.23;;;;;;;19.16;89.74;68899.63;4991172;28;20168;-77
2022/07/30 08:17:59;;;;;;;13.55;8.80;;;;;;;19.22;90.18;68905.91;5009207;28;20037;-78
2022/07/30 08:20:24;;;;;;;15.85;9.00;;;;;;;19.35;90.85;68918.03;5009577;28;20034;-77
2022/07/30 08:22:49;;;;;;;15.80;10.15;;;;;;;;;;4990744;28;20050;-78
2022/07/30 08:25:15;;;;;;;14.25;8.43;;;;;;;19.41;88.77;68927.03;5008694;28;20048;-78
2022/07/30 08:27:43;;;;;;;12.40;8.93;;;;;;;19.41;87.85;68931.88;5008768;28;20679;-77
2022/07/30 08:30:09;;;;;;;12.10;8.05;;;;;;;19.53;87.55;68937.47;5009310;28;20042;-78
2022/07/30 08:32:35;;;;;;;11.50;8.40;;;;;;;;;;5008275;28;20053;-78
2022/07/30 08:35:01;;;;;;;9.38;7.13;;;;;;;19.59;85.93;68947.63;4991628;28;20050;-78
2022/07/30 08:37:26;;;;;;;9.48;6.35;;;;;;;19.62;84.59;68950.44;5008721;28;20532;-77
2022/07/30 08:39:52;;;;;;;10.68;7.75;;;;;;;19.65;83.75;68951.22;5008874;28;20477;-78
2022/07/30 08:42:18;;;;;;;11.73;7.20;;;;;;;19.79;83.78;68966.63;5007663;28;20066;-78
2022/07/30 08:44:45;;;;;;;9.80;6.10;;;;;;;19.91;82.60;68977.66;5008258;28;20485;-78
2022/07/30 08:47:11;;;;;;;11.57;6.88;;;;;;;;;;5005520;28;20053;-78
2022/07/30 08:49:36;;;;;;;10.73;7.50;;;;;;;;;;5007529;28;20053;-78
2022/07/30 08:52:03;;;;;;;8.30;5.65;;;;;;;20.00;81.15;68993.34;5005923;28;20054;-78
2022/07/30 08:54:29;;;;;;;7.85;5.75;;;;;;;20.06;78.52;69000.19;5009222;28;20034;-78
2022/07/30 08:56:54;;;;;;;8.80;5.03;;;;;;;20.19;77.80;69013.91;5007156;28;20425;-77
2022/07/30 08:59:22;;;;;;;8.40;5.70;;;;;;;;;;5005297;28;20037;-78
2022/07/30 09:01:48;;;;;;;10.25;5.65;;;;;;;20.27;79.00;69023.63;5006709;28;20061;-78
2022/07/30 09:04:14;;;;;;;10.02;6.18;;;;;;;;;;5008752;28;20145;-78
2022/07/30 09:06:39;;;;;;;8.25;5.22;;;;;;;20.51;78.29;69049.94;5008366;28;20119;-78
2022/07/30 09:09:05;;;;;;;8.77;5.15;;;;;;;20.57;77.24;69056.25;5009155;28;20107;-78
2022/07/30 09:11:32;;;;;;;8.70;4.50;;;;;;;;;;5008613;28;20056;-78
2022/07/30 09:14:06;;;;;;;11.93;5.68;;;;;;;;;;5007425;28;20066;-78
2022/07/30 09:16:31;;;;;;;10.23;5.80;;;;;;;20.88;77.22;69088.44;5002852;28;20038;-78
2022/07/30 09:19:11;;;;;;;13.27;6.28;;;;;;;20.86;77.05;69089.44;5009217;28;20038;-78
2022/07/30 09:21:36;;;;;;;8.75;5.85;;;;;;;20.86;77.40;69086.72;5006827;28;20129;-78
2022/07/30 09:24:03;;;;;;;12.40;6.70;;;;;;;;;;5006432;28;20049;-78
2022/07/30 09:26:30;;;;;;;10.50;6.22;;;;;;;20.73;77.81;69075.13;5007176;28;20092;-78
2022/07/30 09:29:15;;;;;;;9.10;5.65;;;;;;;20.82;76.14;69084.84;5008004;28;20034;-78
2022/07/30 09:32:06;;;;;;;8.70;5.32;;;;;;;20.83;75.52;69086.00;5005271;28;20042;-78
2022/07/30 09:34:36;;;;;;;10.73;6.00;;;;;;;21.12;75.41;69115.31;5004836;28;20476;-78
2022/07/30 09:37:08;;;;;;;6.78;4.53;;;;;;;21.34;74.57;69143.19;5000507;28;20484;-78
2022/07/30 09:39:39;;;;;;;9.18;5.20;;;;;;;21.49;73.09;69159.22;5005440;28;20042;-78
2022/07/30 09:42:22;;;;;;;9.00;5.40;;;;;;;21.50;71.11;69160.38;5005251;28;20038;-79
2022/07/30 09:44:48;;;;;;;7.07;5.03;;;;;;;21.65;71.72;69174.25;5006363;28;20034;-78
2022/07/30 09:47:39;;;;;;;11.18;4.57;;;;;;;21.67;69.45;69179.25;5004890;28;20038;-79
2022/07/30 09:50:10;;;;;;;10.70;4.68;;;;;;;21.53;67.88;69158.41;4988138;28;20172;-78
2022/07/30 09:52:39;;;;;;;7.63;4.03;;;;;;;21.34;67.63;69140.47;5001522;28;20042;-78
2022/07/30 09:55:05;;;;;;;5.85;4.25;;;;;;;21.38;69.62;69145.09;5001651;28;20493;-78
2022/07/30 09:57:30;;;;;;;8.45;4.90;;;;;;;;;;4999268;28;20053;-78
2022/07/30 09:59:57;;;;;;;7.60;4.07;;;;;;;21.51;68.43;69158.81;5005668;28;20050;-78
2022/07/30 10:02:30;;;;;;;9.27;3.90;;;;;;;21.65;68.74;69182.97;5005348;28;20281;-78
2022/07/30 10:05:08;;;;;;;7.80;4.20;;;;;;;21.71;67.20;69181.69;5010855;28;20037;-79
2022/07/30 10:07:33;;;;;;;5.78;3.80;;;;;;;21.60;63.83;69171.81;5004134;28;20477;-79
2022/07/30 10:09:59;;;;;;;6.28;3.50;;;;;;;21.72;66.55;69185.56;5006306;28;20111;-78
2022/07/30 10:12:26;;;;;;;8.77;3.35;;;;;;;21.96;66.06;69212.44;5005438;28;20033;-80
2022/07/30 10:14:53;;;;;;;7.07;3.80;;;;;;;22.11;64.15;69229.03;5005186;28;20057;-79
2022/07/30 10:17:20;;;;;;;7.30;3.80;;;;;;;22.19;63.32;69238.22;5006141;28;20038;-79
2022/07/30 10:19:46;;;;;;;6.82;3.10;;;;;;;22.16;60.76;69234.78;5004841;28;20077;-79
2022/07/30 10:22:12;;;;;;;6.57;3.30;;;;;;;22.20;62.49;69238.81;4987405;28;20081;-79
2022/07/30 10:24:39;;;;;;;6.78;3.40;;;;;;;22.45;61.70;69267.44;5005634;28;20045;-78
2022/07/30 10:27:07;;;;;;;5.85;3.20;;;;;;;22.50;62.47;69273.16;5006420;28;20042;-79
2022/07/30 10:29:35;;;;;;;4.75;3.13;;;;;;;22.56;62.29;69276.16;5003152;28;20034;-78
2022/07/30 10:32:01;;;;;;;5.68;2.65;;;;;;;;;;5003690;28;20046;-79
2022/07/30 10:34:26;;;;;;;5.82;3.10;;;;;;;;;;5006979;28;20053;-78
2022/07/30 10:36:56;;;;;;;5.37;2.73;;;;;;;22.96;58.52;69322.00;5005511;28;20050;-79
2022/07/30 10:39:29;;;;;;;6.70;3.50;;;;;;;22.87;58.95;69311.69;5005580;28;20281;-79
2022/07/30 10:42:20;;;;;;;6.50;3.15;;;;;;;22.75;60.85;69298.50;4995938;28;20098;-79
2022/07/30 10:45:18;;;;;;;8.65;3.80;;;;;;;22.88;58.89;69312.25;4999738;28;20505;-79
2022/07/30 10:47:46;;;;;;;8.25;3.33;;;;;;;23.01;59.27;69329.28;4954786;28;20121;-79
2022/07/30 10:50:13;;;;;;;5.07;2.60;;;;;;;22.82;56.96;69308.09;5005153;28;20042;-79
2022/07/30 10:52:59;;;;;;;6.70;2.78;;;;;;;22.86;55.67;69307.25;5004055;28;20117;-79
2022/07/30 10:55:27;;;;;;;5.00;2.05;;;;;;;23.20;54.73;69348.91;5005564;28;20049;-79
2022/07/30 10:57:59;;;;;;;3.67;2.28;;;;;;;23.22;55.10;69347.34;5008596;28;20046;-79
2022/07/30 11:00:25;;;;;;;4.80;2.45;;;;;;;23.31;55.89;69363.09;5003806;28;20038;-79
2022/07/30 11:03:09;;;;;;;5.80;2.58;;;;;;;;;;5003723;28;20054;-79
2022/07/30 11:05:34;;;;;;;5.93;2.50;;;;;;;23.38;55.53;69371.13;5019826;28;20100;-80
2022/07/30 11:08:32;;;;;;;7.63;2.45;;;;;;;23.46;52.58;69377.56;5006337;28;20049;-79
2022/07/30 11:10:58;;;;;;;5.93;2.47;;;;;;;23.35;53.68;69362.25;5003523;28;20065;-79
2022/07/30 11:13:59;;;;;;;5.97;2.65;;;;;;;23.35;53.19;69364.97;4986028;28;20038;-79
2022/07/30 11:16:30;;;;;;;5.90;2.13;;;;;;;23.64;54.35;69400.34;4985909;28;20045;-79
2022/07/30 11:19:15;;;;;;;6.50;2.20;;;;;;;23.62;53.96;69395.91;5003316;28;20042;-79
2022/07/30 11:21:42;;;;;;;6.07;2.40;;;;;;;23.79;52.76;69417.53;5007010;28;20034;-79
2022/07/30 11:24:37;;;;;;;5.72;2.70;;;;;;;;;;5007930;28;20053;-79
2022/07/30 11:27:02;;;;;;;7.55;2.65;;;;;;;23.60;51.85;69396.34;4980620;28;20046;-79
2022/07/30 11:29:37;;;;;;;5.40;2.30;;;;;;;23.69;51.92;69402.78;5007654;28;20053;-79
2022/07/30 11:32:23;;;;;;;6.38;2.20;;;;;;;23.71;52.11;69402.38;4987013;28;20045;-79
2022/07/30 11:34:49;;;;;;;5.97;2.20;;;;;;;23.85;50.50;69421.13;5003574;28;20049;-79
2022/07/30 11:37:16;;;;;;;4.45;2.00;;;;;;;24.02;51.25;69440.03;4988685;28;20042;-79
2022/07/30 11:39:56;;;;;;;5.82;1.85;;;;;;;24.09;50.28;69451.38;5002188;28;20061;-79
2022/07/30 11:42:26;;;;;;;6.28;2.00;;;;;;;24.17;50.11;69456.66;5008263;28;20037;-79
2022/07/30 11:44:52;;;;;;;5.15;1.90;;;;;;;24.49;49.38;69493.41;5007578;28;20046;-79
2022/07/30 11:47:17;;;;;;;4.95;1.83;;;;;;;24.59;48.99;69506.44;5009147;28;20037;-79
2022/07/30 11:49:45;;;;;;;5.00;2.00;;;;;;;24.75;45.83;69522.06;4986965;28;20076;-79
2022/07/30 11:52:11;;;;;;;3.22;1.70;;;;;;;24.53;47.10;69497.97;5007531;28;20634;-79
2022/07/30 11:54:53;;;;;;;3.85;2.28;;;;;;;24.52;45.76;69493.53;5007587;28;20050;-79
2022/07/30 11:57:18;;;;;;;3.85;1.92;;;;;;;24.40;46.88;69485.78;5005102;28;20100;-79
2022/07/30 11:59:55;;;;;;;2.45;1.38;;;;;;;24.63;46.43;69511.00;5006052;28;20564;-79
2022/07/30 12:02:26;;;;;;;3.45;1.70;;;;;;;24.58;43.08;69499.84;5007676;28;20044;-79
2022/07/30 12:04:52;;;;;;;5.03;1.55;;;;;;;24.53;43.17;69500.69;5014729;28;20037;-79